Metar-ilmailun säätiedot     EFOU Oulu Airport
Lämpötila
-5°C Lämpötila
-6°C Kastepiste
93% Kosteus



Tuuli
16 KM/H
10 MPH
4 M/S
9 KTS



60°
I-KO
Nykyiset olosuhteet

Lumisadetta Lumisadetta
Paine 989.92 (hPa) - 29.23 (inHg)
Näkyvyys 0.6 (maili) - 1 (km)
Lentokenttä
Lentokentän koodi EFOU

Sijainti: Oulu Airport
Etäisyys:: 83 (km)

Metar:
EFOU 241150Z AUTO 06009KT 1000 R12/1000U SN OVC011 M05/M06 Q0990

Aika: 24-03-2023 11:50 EET